createdAt,value
2022-12-31T00:02:25.834Z,26.70
2022-12-31T00:04:55.607Z,26.70
2022-12-31T00:07:23.837Z,26.60
2022-12-31T00:09:51.996Z,26.60
2022-12-31T00:12:20.214Z,26.60
2022-12-31T00:14:48.555Z,26.60
2022-12-31T00:17:16.801Z,26.60
2022-12-31T00:19:45.075Z,26.60
2022-12-31T00:22:13.426Z,26.60
2022-12-31T00:24:41.645Z,26.50
2022-12-31T00:27:09.994Z,26.50
2022-12-31T00:29:38.231Z,26.50
2022-12-31T00:32:06.672Z,26.50
2022-12-31T00:34:35.257Z,26.50
2022-12-31T00:37:03.481Z,26.50
2022-12-31T00:39:31.682Z,26.40
2022-12-31T00:41:59.943Z,26.50
2022-12-31T00:44:28.086Z,26.40
2022-12-31T00:46:56.284Z,26.40
2022-12-31T00:49:24.493Z,26.40
2022-12-31T00:51:52.770Z,26.40
2022-12-31T00:54:21.073Z,26.40
2022-12-31T00:56:49.269Z,26.40
2022-12-31T00:59:17.579Z,26.40
2022-12-31T01:01:46.018Z,26.30
2022-12-31T01:04:19.409Z,26.30
2022-12-31T01:06:48.311Z,26.30
2022-12-31T01:09:17.466Z,26.30
2022-12-31T01:11:46.218Z,26.30
2022-12-31T01:14:17.027Z,26.30
2022-12-31T01:16:48.257Z,26.40
2022-12-31T01:19:22.372Z,26.40
2022-12-31T01:21:51.922Z,26.40
2022-12-31T01:24:20.588Z,26.40
2022-12-31T01:26:50.535Z,26.40
2022-12-31T01:29:18.958Z,26.40
2022-12-31T01:31:47.078Z,26.40
2022-12-31T01:34:15.288Z,26.40
2022-12-31T01:36:43.660Z,26.40
2022-12-31T01:39:12.294Z,26.40
2022-12-31T01:41:44.272Z,26.50
2022-12-31T01:44:12.526Z,26.40
2022-12-31T01:46:47.963Z,26.40
2022-12-31T01:49:37.674Z,26.40
2022-12-31T01:52:34.587Z,26.40
2022-12-31T01:55:26.274Z,26.40
2022-12-31T01:57:59.702Z,26.30
2022-12-31T02:00:28.087Z,26.30
2022-12-31T02:02:56.370Z,26.40
2022-12-31T02:05:35.692Z,26.30
2022-12-31T02:08:05.868Z,26.30
2022-12-31T02:10:34.181Z,26.30
2022-12-31T02:13:03.217Z,26.30
2022-12-31T02:16:09.810Z,26.20
2022-12-31T02:18:57.067Z,26.20
2022-12-31T02:21:45.481Z,26.20
2022-12-31T02:24:27.704Z,26.20
2022-12-31T02:27:01.841Z,26.20
2022-12-31T02:29:36.457Z,26.20
2022-12-31T02:32:17.141Z,26.20
2022-12-31T02:34:54.039Z,26.20
2022-12-31T02:37:25.589Z,26.30
2022-12-31T02:39:54.508Z,26.30
2022-12-31T02:42:22.708Z,26.30
2022-12-31T02:44:50.786Z,26.30
2022-12-31T02:47:44.916Z,26.30
2022-12-31T02:50:23.082Z,26.20
2022-12-31T02:53:14.853Z,26.20
2022-12-31T02:55:56.337Z,26.10
2022-12-31T02:58:38.526Z,26.10
2022-12-31T03:01:07.040Z,26.10
2022-12-31T03:03:37.287Z,26.10
2022-12-31T03:06:08.436Z,26.00
2022-12-31T03:08:37.335Z,26.00
2022-12-31T03:11:05.660Z,25.90
2022-12-31T03:13:34.574Z,25.90
2022-12-31T03:16:02.910Z,25.90
2022-12-31T03:18:31.171Z,25.80
2022-12-31T03:20:59.497Z,25.80
2022-12-31T03:23:33.368Z,25.80
2022-12-31T03:26:02.861Z,25.80
2022-12-31T03:28:31.536Z,25.90
2022-12-31T03:31:01.875Z,25.80
2022-12-31T03:33:36.388Z,25.80
2022-12-31T03:36:06.831Z,25.70
2022-12-31T03:38:34.997Z,25.70
2022-12-31T03:41:03.158Z,25.70
2022-12-31T03:43:31.396Z,25.70
2022-12-31T03:45:59.646Z,25.60
2022-12-31T03:48:28.153Z,25.60
2022-12-31T03:50:56.602Z,25.60
2022-12-31T03:53:24.923Z,25.60
2022-12-31T03:55:54.129Z,25.60
2022-12-31T03:58:23.343Z,25.60
2022-12-31T04:00:51.952Z,25.60
2022-12-31T04:03:20.336Z,25.50
2022-12-31T04:05:56.446Z,25.40
2022-12-31T04:08:25.351Z,25.40
2022-12-31T04:10:53.525Z,25.40
2022-12-31T04:13:21.737Z,25.40
2022-12-31T04:15:53.164Z,25.40
2022-12-31T04:18:21.375Z,25.40
2022-12-31T04:20:49.402Z,25.40
2022-12-31T04:23:18.942Z,25.50
2022-12-31T04:25:47.185Z,25.50
2022-12-31T04:28:15.632Z,25.50
2022-12-31T04:30:44.367Z,25.40
2022-12-31T04:33:12.965Z,25.30
2022-12-31T04:35:41.304Z,25.30
2022-12-31T04:38:09.671Z,25.20
2022-12-31T04:40:37.816Z,25.20
2022-12-31T04:43:06.100Z,25.30
2022-12-31T04:45:34.423Z,25.30
2022-12-31T04:48:02.752Z,25.30
2022-12-31T04:50:31.032Z,25.30
2022-12-31T04:52:59.233Z,25.30
2022-12-31T04:55:27.547Z,25.30
2022-12-31T04:57:55.729Z,25.30
2022-12-31T05:00:23.963Z,25.30
2022-12-31T05:02:52.196Z,25.20
2022-12-31T05:05:20.498Z,25.20
2022-12-31T05:07:48.687Z,25.20
2022-12-31T05:10:16.948Z,25.20
2022-12-31T05:12:45.277Z,25.20
2022-12-31T05:15:13.521Z,25.20
2022-12-31T05:17:41.907Z,25.30
2022-12-31T05:20:10.456Z,25.30
2022-12-31T05:22:38.531Z,25.20
2022-12-31T05:25:07.236Z,25.20
2022-12-31T05:27:35.872Z,25.20
2022-12-31T05:30:05.293Z,25.20
2022-12-31T05:32:34.033Z,25.20
2022-12-31T05:35:02.268Z,25.10
2022-12-31T05:37:31.064Z,25.10
2022-12-31T05:39:59.628Z,25.10
2022-12-31T05:42:28.330Z,25.10
2022-12-31T05:44:56.521Z,25.10
2022-12-31T05:47:24.991Z,25.10
2022-12-31T05:49:53.649Z,25.10
2022-12-31T05:52:22.716Z,25.10
2022-12-31T05:54:51.353Z,25.10
2022-12-31T05:57:19.929Z,25.10
2022-12-31T05:59:48.239Z,25.10
2022-12-31T06:02:16.467Z,25.10
2022-12-31T06:04:44.866Z,25.10
2022-12-31T06:07:13.239Z,25.10
2022-12-31T06:09:41.569Z,25.10
2022-12-31T06:12:10.229Z,25.10
2022-12-31T06:14:43.775Z,25.10
2022-12-31T06:17:13.942Z,25.10
2022-12-31T06:19:42.186Z,25.10
2022-12-31T06:22:10.345Z,25.00
2022-12-31T06:24:38.685Z,25.00
2022-12-31T06:27:06.927Z,25.00
2022-12-31T06:29:35.145Z,25.00
2022-12-31T06:32:03.500Z,25.00
2022-12-31T06:34:32.069Z,25.00
2022-12-31T06:37:00.601Z,25.00
2022-12-31T06:39:28.977Z,25.00
2022-12-31T06:41:57.372Z,25.00
2022-12-31T06:44:25.573Z,24.90
2022-12-31T06:46:53.862Z,24.90
2022-12-31T06:49:25.460Z,24.90
2022-12-31T06:51:53.711Z,24.90
2022-12-31T06:54:22.158Z,24.90
2022-12-31T06:56:50.777Z,24.90
2022-12-31T06:59:30.079Z,24.90
2022-12-31T07:02:17.012Z,24.90
2022-12-31T07:05:18.535Z,24.90
2022-12-31T07:07:53.788Z,24.90
2022-12-31T07:10:37.311Z,24.90
2022-12-31T07:13:23.986Z,24.90
2022-12-31T07:16:14.040Z,24.90
2022-12-31T07:19:06.300Z,24.90
2022-12-31T07:21:41.675Z,24.90
2022-12-31T07:24:11.645Z,24.90
2022-12-31T07:27:19.329Z,24.90
2022-12-31T07:29:59.843Z,25.00
2022-12-31T07:32:59.093Z,25.00
2022-12-31T07:35:53.435Z,25.00
2022-12-31T07:38:59.768Z,25.00
2022-12-31T07:41:40.235Z,25.00
2022-12-31T07:44:30.450Z,25.00
2022-12-31T07:47:04.004Z,25.10
2022-12-31T07:49:34.078Z,25.00
2022-12-31T07:52:03.568Z,25.00
2022-12-31T07:54:31.764Z,25.00
2022-12-31T07:56:59.948Z,25.10
2022-12-31T08:00:16.228Z,25.10
2022-12-31T08:03:25.359Z,25.00
2022-12-31T08:06:25.746Z,25.10
2022-12-31T08:09:07.266Z,25.00
2022-12-31T08:11:56.234Z,25.10
2022-12-31T08:14:25.443Z,25.10
2022-12-31T08:16:54.087Z,25.10
2022-12-31T08:19:28.476Z,25.20
2022-12-31T08:22:20.632Z,25.30
2022-12-31T08:24:59.477Z,25.30
2022-12-31T08:28:00.178Z,25.20
2022-12-31T08:30:41.368Z,25.30
2022-12-31T08:33:24.243Z,25.30
2022-12-31T08:36:10.836Z,25.40
2022-12-31T08:38:42.177Z,25.50
2022-12-31T08:41:28.217Z,25.60
2022-12-31T08:44:11.087Z,25.70
2022-12-31T08:46:54.142Z,25.70
2022-12-31T08:49:22.747Z,25.70
2022-12-31T08:51:51.200Z,25.70
2022-12-31T08:58:34.938Z,25.90
2022-12-31T09:01:06.000Z,25.90
2022-12-31T09:04:21.923Z,26.00
2022-12-31T09:06:59.007Z,26.00
2022-12-31T09:09:56.245Z,26.10
2022-12-31T09:12:42.602Z,26.10
2022-12-31T09:15:38.028Z,26.20
2022-12-31T09:18:08.673Z,26.20
2022-12-31T09:20:44.824Z,26.30
2022-12-31T09:23:14.510Z,26.40
2022-12-31T09:25:58.703Z,26.60
2022-12-31T09:28:45.399Z,26.70
2022-12-31T09:31:26.469Z,26.70
2022-12-31T09:34:19.115Z,26.80
2022-12-31T09:36:56.401Z,26.90
2022-12-31T09:39:44.471Z,26.90
2022-12-31T09:42:53.804Z,27.20
2022-12-31T09:45:47.985Z,27.20
2022-12-31T09:49:04.402Z,27.30
2022-12-31T09:51:33.797Z,27.50
2022-12-31T09:54:10.493Z,27.60
2022-12-31T09:56:59.345Z,27.60
2022-12-31T09:59:41.540Z,27.60
2022-12-31T10:02:42.351Z,27.60
2022-12-31T10:05:31.994Z,27.70
2022-12-31T10:08:26.816Z,27.70
2022-12-31T10:11:03.866Z,27.70
2022-12-31T10:14:09.067Z,27.70
2022-12-31T10:16:59.128Z,27.80
2022-12-31T10:19:42.294Z,27.80
2022-12-31T10:22:37.763Z,27.80
2022-12-31T10:25:43.227Z,27.90
2022-12-31T10:28:29.770Z,27.90
2022-12-31T10:31:20.921Z,27.80
2022-12-31T10:34:16.950Z,27.70
2022-12-31T10:36:53.222Z,27.70
2022-12-31T10:39:30.439Z,27.70
2022-12-31T10:42:01.647Z,27.80
2022-12-31T10:44:57.631Z,27.90
2022-12-31T10:48:02.564Z,28.00
2022-12-31T10:51:04.782Z,28.10
2022-12-31T10:53:52.120Z,28.20
2022-12-31T10:56:35.798Z,28.20
2022-12-31T10:59:04.006Z,28.50
2022-12-31T11:01:35.132Z,28.50
2022-12-31T11:04:06.647Z,28.70
2022-12-31T11:06:56.341Z,28.70
2022-12-31T11:09:34.519Z,28.80
2022-12-31T11:12:26.405Z,28.90
2022-12-31T11:15:16.098Z,29.10
2022-12-31T11:17:47.356Z,29.30
2022-12-31T11:20:49.001Z,29.40
2022-12-31T11:23:55.161Z,29.50
2022-12-31T11:26:35.718Z,29.60
2022-12-31T11:29:19.258Z,29.70
2022-12-31T11:31:50.381Z,29.80
2022-12-31T11:34:38.994Z,29.90
2022-12-31T11:37:22.601Z,30.00
2022-12-31T11:40:14.365Z,30.00
2022-12-31T11:43:05.613Z,30.10
2022-12-31T11:45:33.923Z,30.20
2022-12-31T11:48:30.080Z,30.30
2022-12-31T11:51:23.330Z,30.30
2022-12-31T11:54:12.990Z,30.40
2022-12-31T11:56:53.372Z,30.50
2022-12-31T11:59:22.400Z,30.50
2022-12-31T12:02:04.927Z,30.60
2022-12-31T12:04:33.191Z,30.70
2022-12-31T12:07:01.436Z,30.70
2022-12-31T12:09:35.096Z,30.80
2022-12-31T12:12:06.048Z,31.00
2022-12-31T12:14:40.387Z,31.10
2022-12-31T12:17:24.707Z,31.20
2022-12-31T12:19:56.135Z,31.20
2022-12-31T12:22:26.530Z,31.20
2022-12-31T12:24:56.198Z,31.30
2022-12-31T12:27:29.497Z,31.50
2022-12-31T12:29:57.916Z,31.60
2022-12-31T12:32:28.046Z,31.60
2022-12-31T12:34:56.333Z,31.70
2022-12-31T12:37:35.381Z,31.80
2022-12-31T12:40:20.462Z,31.90
2022-12-31T12:42:54.006Z,32.00
2022-12-31T12:45:51.818Z,32.00
2022-12-31T12:48:32.296Z,32.10
2022-12-31T12:51:01.695Z,32.20
2022-12-31T12:54:04.507Z,32.30
2022-12-31T12:56:56.140Z,32.30
2022-12-31T12:59:43.866Z,32.50
2022-12-31T13:02:34.021Z,32.60
2022-12-31T13:05:32.973Z,32.60
2022-12-31T13:08:08.922Z,32.60
2022-12-31T13:10:58.915Z,32.70
2022-12-31T13:13:42.942Z,32.70
2022-12-31T13:16:25.544Z,32.80
2022-12-31T13:19:07.710Z,32.90
2022-12-31T13:21:36.056Z,32.90
2022-12-31T13:24:18.129Z,32.90
2022-12-31T13:26:57.465Z,33.00
2022-12-31T13:29:29.928Z,33.20
2022-12-31T13:32:01.246Z,33.20
2022-12-31T13:34:44.251Z,33.30
2022-12-31T13:37:38.693Z,33.40
2022-12-31T13:41:59.594Z,33.50
2022-12-31T13:44:59.348Z,33.50
2022-12-31T13:47:35.919Z,33.50
2022-12-31T13:50:29.871Z,33.60
2022-12-31T13:53:21.540Z,33.60
2022-12-31T13:56:03.689Z,33.70
2022-12-31T13:58:40.426Z,33.70
2022-12-31T14:01:33.420Z,33.80
2022-12-31T14:04:13.100Z,33.80
2022-12-31T14:06:53.600Z,33.90
2022-12-31T14:09:32.024Z,33.90
2022-12-31T14:12:00.402Z,33.90
2022-12-31T14:14:43.972Z,33.90
2022-12-31T14:17:33.729Z,34.00
2022-12-31T14:20:15.067Z,34.10
2022-12-31T14:22:52.576Z,34.10
2022-12-31T14:25:29.657Z,34.20
2022-12-31T14:28:02.685Z,34.30
2022-12-31T14:30:36.807Z,34.30
2022-12-31T14:33:20.452Z,34.40
2022-12-31T14:36:13.216Z,34.60
2022-12-31T14:39:14.002Z,34.60
2022-12-31T14:42:07.148Z,34.60
2022-12-31T14:45:06.220Z,34.80
2022-12-31T14:47:57.997Z,34.80
2022-12-31T14:50:30.782Z,34.90
2022-12-31T14:53:05.290Z,35.00
2022-12-31T14:55:36.144Z,35.00
2022-12-31T14:58:29.783Z,35.10
2022-12-31T15:01:17.707Z,35.20
2022-12-31T15:03:46.804Z,35.20
2022-12-31T15:06:24.033Z,35.30
2022-12-31T15:17:54.955Z,35.70
2022-12-31T15:20:44.389Z,35.80
2022-12-31T15:27:38.527Z,36.20
2022-12-31T15:31:21.584Z,36.30
2022-12-31T15:34:24.813Z,36.40
2022-12-31T15:36:56.509Z,36.60
2022-12-31T15:39:47.224Z,36.80
2022-12-31T15:42:49.401Z,36.80
2022-12-31T15:45:52.690Z,36.90
2022-12-31T15:48:27.376Z,37.00
2022-12-31T15:50:59.412Z,36.90
2022-12-31T15:53:48.749Z,36.90
2022-12-31T15:56:25.150Z,37.00
2022-12-31T15:59:00.493Z,37.00
2022-12-31T16:01:37.104Z,37.10
2022-12-31T16:04:17.944Z,37.20
2022-12-31T16:06:50.669Z,37.30
2022-12-31T16:09:27.770Z,37.00
2022-12-31T16:11:57.933Z,37.00
2022-12-31T16:14:54.024Z,36.90
2022-12-31T16:17:36.546Z,36.90
2022-12-31T16:20:29.412Z,36.90
2022-12-31T16:22:58.645Z,36.70
2022-12-31T16:25:31.656Z,36.60
2022-12-31T16:28:03.223Z,36.60
2022-12-31T16:30:33.510Z,36.40
2022-12-31T16:33:07.208Z,36.40
2022-12-31T16:35:37.580Z,36.20
2022-12-31T16:38:08.797Z,36.10
2022-12-31T16:40:37.266Z,36.00
2022-12-31T16:43:25.267Z,35.90
2022-12-31T16:45:55.735Z,35.80
2022-12-31T16:48:24.197Z,35.50
2022-12-31T16:50:55.667Z,35.30
2022-12-31T16:53:27.713Z,35.10
2022-12-31T16:56:07.048Z,35.10
2022-12-31T16:58:44.491Z,34.90
2022-12-31T17:01:28.269Z,34.70
2022-12-31T17:04:04.903Z,34.50
2022-12-31T17:06:33.325Z,34.30
2022-12-31T17:09:14.778Z,34.20
2022-12-31T17:11:52.547Z,34.10
2022-12-31T17:14:26.549Z,34.00
2022-12-31T17:17:05.945Z,33.70
2022-12-31T17:19:42.581Z,33.50
2022-12-31T17:25:36.591Z,33.00
2022-12-31T17:28:08.405Z,32.90
2022-12-31T17:30:38.189Z,32.70
2022-12-31T17:33:12.404Z,32.50
2022-12-31T17:35:43.074Z,32.30
2022-12-31T17:38:32.296Z,32.20
2022-12-31T17:41:03.687Z,32.10
2022-12-31T17:43:35.458Z,32.00
2022-12-31T17:46:16.367Z,31.80
2022-12-31T17:48:49.809Z,31.70
2022-12-31T17:51:18.256Z,31.50
2022-12-31T17:53:53.011Z,31.40
2022-12-31T17:56:21.648Z,31.30
2022-12-31T17:58:52.959Z,31.10
2022-12-31T18:01:23.490Z,31.10
2022-12-31T18:03:52.076Z,31.00
2022-12-31T18:06:20.389Z,30.90
2022-12-31T18:08:48.649Z,30.80
2022-12-31T18:11:21.434Z,30.70
2022-12-31T18:13:50.829Z,30.50
2022-12-31T18:16:19.279Z,30.40
2022-12-31T18:18:47.492Z,30.40
2022-12-31T18:21:24.084Z,30.30
2022-12-31T18:26:22.998Z,30.10
2022-12-31T18:28:52.316Z,30.00
2022-12-31T18:31:22.965Z,29.90
2022-12-31T18:33:52.927Z,29.70
2022-12-31T18:36:22.644Z,29.60
2022-12-31T18:38:51.666Z,29.50
2022-12-31T18:41:23.169Z,29.40
2022-12-31T18:43:51.766Z,29.30
2022-12-31T18:46:22.759Z,29.30
2022-12-31T18:48:51.297Z,29.20
2022-12-31T18:51:26.442Z,29.10
2022-12-31T18:54:00.844Z,29.10
2022-12-31T18:56:29.303Z,29.00
2022-12-31T18:58:57.701Z,28.90
2022-12-31T19:01:41.003Z,28.90
2022-12-31T19:04:22.888Z,28.80
2022-12-31T19:06:55.685Z,28.80
2022-12-31T19:12:15.291Z,28.70
2022-12-31T19:14:43.563Z,28.70
2022-12-31T19:17:11.755Z,28.60
2022-12-31T19:19:40.161Z,28.60
2022-12-31T19:22:15.419Z,28.60
2022-12-31T19:24:43.870Z,28.50
2022-12-31T19:27:15.736Z,28.50
2022-12-31T19:29:43.743Z,28.50
2022-12-31T19:32:12.111Z,28.40
2022-12-31T19:34:41.455Z,28.40
2022-12-31T19:37:15.799Z,28.40
2022-12-31T19:39:45.120Z,28.40
2022-12-31T19:42:16.355Z,28.40
2022-12-31T19:44:44.526Z,28.40
2022-12-31T19:47:14.095Z,28.40
2022-12-31T19:49:42.376Z,28.30
2022-12-31T19:52:11.217Z,28.30
2022-12-31T19:54:39.448Z,28.30
2022-12-31T19:57:07.679Z,28.30
2022-12-31T19:59:35.972Z,28.20
2022-12-31T20:02:04.521Z,28.20
2022-12-31T20:04:32.894Z,28.20
2022-12-31T20:07:01.172Z,28.20
2022-12-31T20:09:29.361Z,28.20
2022-12-31T20:11:57.663Z,28.10
2022-12-31T20:14:25.832Z,28.10
2022-12-31T20:16:54.123Z,28.10
2022-12-31T20:19:22.560Z,28.00
2022-12-31T20:21:50.813Z,28.00
2022-12-31T20:24:19.018Z,28.00
2022-12-31T20:26:47.439Z,28.00
2022-12-31T20:29:15.777Z,27.90
2022-12-31T20:31:44.167Z,28.00
2022-12-31T20:34:12.936Z,27.90
2022-12-31T20:36:41.201Z,27.90
2022-12-31T20:39:09.581Z,27.80
2022-12-31T20:41:37.796Z,27.70
2022-12-31T20:44:06.311Z,27.70
2022-12-31T20:46:34.619Z,27.60
2022-12-31T20:49:04.854Z,27.60
2022-12-31T20:51:35.423Z,27.70
2022-12-31T20:54:07.283Z,27.70
2022-12-31T20:56:37.718Z,27.60
2022-12-31T20:59:07.358Z,27.50
2022-12-31T21:01:55.408Z,27.50
2022-12-31T21:04:24.074Z,27.40
2022-12-31T21:07:50.236Z,27.40
2022-12-31T21:10:18.655Z,27.40
2022-12-31T21:12:46.982Z,27.50
2022-12-31T21:15:15.194Z,27.60
2022-12-31T21:17:43.410Z,27.60
2022-12-31T21:20:12.117Z,27.50
2022-12-31T21:22:40.341Z,27.50
2022-12-31T21:25:08.961Z,27.50
2022-12-31T21:27:37.242Z,27.50
2022-12-31T21:30:21.351Z,27.50
2022-12-31T21:32:49.796Z,27.50
2022-12-31T21:38:08.014Z,27.40
2022-12-31T21:40:36.813Z,27.30
2022-12-31T21:43:05.006Z,27.30
2022-12-31T21:45:33.216Z,27.30
2022-12-31T21:48:02.202Z,27.20
2022-12-31T21:50:30.447Z,27.30
2022-12-31T21:52:58.545Z,27.30
2022-12-31T21:55:26.993Z,27.30
2022-12-31T22:00:43.841Z,27.30
2022-12-31T22:03:13.523Z,27.30
2022-12-31T22:05:52.260Z,27.30
2022-12-31T22:08:22.562Z,27.30
2022-12-31T22:10:53.025Z,27.30
2022-12-31T22:13:22.019Z,27.30
2022-12-31T22:15:58.703Z,27.30
2022-12-31T22:18:30.931Z,27.20
2022-12-31T22:21:04.327Z,27.20
2022-12-31T22:23:33.597Z,27.20
2022-12-31T22:26:03.083Z,27.20
2022-12-31T22:28:40.014Z,27.20
2022-12-31T22:31:16.812Z,27.10
2022-12-31T22:33:45.196Z,27.10
2022-12-31T22:36:16.127Z,27.10
2022-12-31T22:38:45.188Z,27.10
2022-12-31T22:41:16.135Z,27.00
2022-12-31T22:43:46.990Z,27.00
2022-12-31T22:46:23.900Z,27.00
2022-12-31T22:48:54.874Z,27.00
2022-12-31T22:51:23.228Z,27.00
2022-12-31T22:53:52.596Z,26.90
2022-12-31T22:56:20.971Z,27.00
2022-12-31T22:58:49.188Z,26.90
2022-12-31T23:01:22.480Z,26.80
2022-12-31T23:03:53.420Z,26.80
2022-12-31T23:06:23.215Z,26.80
2022-12-31T23:08:52.175Z,26.80
2022-12-31T23:11:20.404Z,26.70
2022-12-31T23:13:50.846Z,26.70
2022-12-31T23:16:20.260Z,26.70
2022-12-31T23:18:48.580Z,26.70
2022-12-31T23:21:17.174Z,26.70
2022-12-31T23:23:45.353Z,26.70
2022-12-31T23:26:13.676Z,26.70
2022-12-31T23:28:42.049Z,26.60
2022-12-31T23:31:10.360Z,26.50
2022-12-31T23:33:39.078Z,26.50
2022-12-31T23:36:08.715Z,26.50
2022-12-31T23:38:36.961Z,26.50
2022-12-31T23:41:20.515Z,26.40
2022-12-31T23:43:49.191Z,26.40
2022-12-31T23:46:18.250Z,26.30
2022-12-31T23:48:46.702Z,26.30
2022-12-31T23:51:14.832Z,26.40
2022-12-31T23:53:43.000Z,26.40
2022-12-31T23:56:22.843Z,26.30
2022-12-31T23:58:55.522Z,26.40
